sensor_id;sensor_type;location;lat;lon;timestamp;temperature;humidity
2783;DHT22;1399;47.072;15.452;2023-02-16T00:00:47;6.80;50.20
2783;DHT22;1399;47.072;15.452;2023-02-16T00:03:15;6.80;50.20
2783;DHT22;1399;47.072;15.452;2023-02-16T00:05:41;6.80;50.20
2783;DHT22;1399;47.072;15.452;2023-02-16T00:08:07;6.80;50.20
2783;DHT22;1399;47.072;15.452;2023-02-16T00:10:35;6.80;50.20
2783;DHT22;1399;47.072;15.452;2023-02-16T00:13:01;6.80;50.20
2783;DHT22;1399;47.072;15.452;2023-02-16T00:15:46;6.80;50.10
2783;DHT22;1399;47.072;15.452;2023-02-16T00:18:17;6.70;50.10
2783;DHT22;1399;47.072;15.452;2023-02-16T00:20:44;6.70;50.10
2783;DHT22;1399;47.072;15.452;2023-02-16T00:23:10;6.80;50.10
2783;DHT22;1399;47.072;15.452;2023-02-16T00:25:36;6.80;50.10
2783;DHT22;1399;47.072;15.452;2023-02-16T00:28:04;6.80;50.00
2783;DHT22;1399;47.072;15.452;2023-02-16T00:30:31;6.70;50.00
2783;DHT22;1399;47.072;15.452;2023-02-16T00:32:57;6.70;49.90
2783;DHT22;1399;47.072;15.452;2023-02-16T00:35:23;6.70;49.90
2783;DHT22;1399;47.072;15.452;2023-02-16T00:37:48;6.70;50.00
2783;DHT22;1399;47.072;15.452;2023-02-16T00:40:16;6.70;49.90
2783;DHT22;1399;47.072;15.452;2023-02-16T00:42:43;6.70;49.90
2783;DHT22;1399;47.072;15.452;2023-02-16T00:45:19;6.70;49.90
2783;DHT22;1399;47.072;15.452;2023-02-16T00:47:48;6.70;49.90
2783;DHT22;1399;47.072;15.452;2023-02-16T00:50:19;6.70;49.90
2783;DHT22;1399;47.072;15.452;2023-02-16T00:52:45;6.70;49.80
2783;DHT22;1399;47.072;15.452;2023-02-16T00:55:20;6.70;49.80
2783;DHT22;1399;47.072;15.452;2023-02-16T00:57:59;6.70;49.80
2783;DHT22;1399;47.072;15.452;2023-02-16T01:00:39;6.60;49.80
2783;DHT22;1399;47.072;15.452;2023-02-16T01:03:10;6.60;49.80
2783;DHT22;1399;47.072;15.452;2023-02-16T01:05:37;6.60;49.80
2783;DHT22;1399;47.072;15.452;2023-02-16T01:08:09;6.60;49.80
2783;DHT22;1399;47.072;15.452;2023-02-16T01:10:54;6.60;49.90
2783;DHT22;1399;47.072;15.452;2023-02-16T01:13:25;6.60;49.80
2783;DHT22;1399;47.072;15.452;2023-02-16T01:15:53;6.60;49.80
2783;DHT22;1399;47.072;15.452;2023-02-16T01:18:19;6.60;49.70
2783;DHT22;1399;47.072;15.452;2023-02-16T01:20:46;6.60;49.70
2783;DHT22;1399;47.072;15.452;2023-02-16T01:23:12;6.50;49.60
2783;DHT22;1399;47.072;15.452;2023-02-16T01:25:39;6.60;49.60
2783;DHT22;1399;47.072;15.452;2023-02-16T01:28:21;6.60;49.60
2783;DHT22;1399;47.072;15.452;2023-02-16T01:30:47;6.50;50.20
2783;DHT22;1399;47.072;15.452;2023-02-16T01:33:13;6.50;49.50
2783;DHT22;1399;47.072;15.452;2023-02-16T01:35:39;6.50;49.50
2783;DHT22;1399;47.072;15.452;2023-02-16T01:38:05;6.50;49.50
2783;DHT22;1399;47.072;15.452;2023-02-16T01:43:20;6.50;49.40
2783;DHT22;1399;47.072;15.452;2023-02-16T01:46:04;6.50;49.40
2783;DHT22;1399;47.072;15.452;2023-02-16T01:48:33;6.50;49.40
2783;DHT22;1399;47.072;15.452;2023-02-16T01:51:27;6.50;49.40
2783;DHT22;1399;47.072;15.452;2023-02-16T01:54:11;6.50;49.40
2783;DHT22;1399;47.072;15.452;2023-02-16T01:56:47;6.50;49.30
2783;DHT22;1399;47.072;15.452;2023-02-16T02:02:04;6.50;49.30
2783;DHT22;1399;47.072;15.452;2023-02-16T02:04:51;6.50;49.20
2783;DHT22;1399;47.072;15.452;2023-02-16T02:15:09;6.40;49.10
2783;DHT22;1399;47.072;15.452;2023-02-16T02:17:35;6.40;49.10
2783;DHT22;1399;47.072;15.452;2023-02-16T02:20:43;6.40;49.10
2783;DHT22;1399;47.072;15.452;2023-02-16T02:23:44;6.40;49.10
2783;DHT22;1399;47.072;15.452;2023-02-16T02:29:42;6.40;49.00
2783;DHT22;1399;47.072;15.452;2023-02-16T02:37:47;6.40;49.00
2783;DHT22;1399;47.072;15.452;2023-02-16T02:40:56;6.40;49.00
2783;DHT22;1399;47.072;15.452;2023-02-16T02:46:22;6.40;49.00
2783;DHT22;1399;47.072;15.452;2023-02-16T02:48:50;6.40;48.90
2783;DHT22;1399;47.072;15.452;2023-02-16T02:51:15;6.40;48.90
2783;DHT22;1399;47.072;15.452;2023-02-16T02:54:23;6.30;48.90
2783;DHT22;1399;47.072;15.452;2023-02-16T02:57:31;6.30;48.80
2783;DHT22;1399;47.072;15.452;2023-02-16T03:00:37;6.30;48.70
2783;DHT22;1399;47.072;15.452;2023-02-16T03:03:31;6.30;48.70
2783;DHT22;1399;47.072;15.452;2023-02-16T03:06:17;6.30;48.70
2783;DHT22;1399;47.072;15.452;2023-02-16T03:08:47;6.30;48.60
2783;DHT22;1399;47.072;15.452;2023-02-16T03:11:25;6.30;48.60
2783;DHT22;1399;47.072;15.452;2023-02-16T03:14:17;6.30;48.70
2783;DHT22;1399;47.072;15.452;2023-02-16T03:16:55;6.30;48.60
2783;DHT22;1399;47.072;15.452;2023-02-16T03:19:42;6.30;48.60
2783;DHT22;1399;47.072;15.452;2023-02-16T03:22:27;6.30;48.60
2783;DHT22;1399;47.072;15.452;2023-02-16T03:25:12;6.30;48.50
2783;DHT22;1399;47.072;15.452;2023-02-16T03:27:59;6.30;48.50
2783;DHT22;1399;47.072;15.452;2023-02-16T03:30:46;6.30;48.50
2783;DHT22;1399;47.072;15.452;2023-02-16T03:33:12;6.30;48.50
2783;DHT22;1399;47.072;15.452;2023-02-16T03:35:38;6.20;48.40
2783;DHT22;1399;47.072;15.452;2023-02-16T03:38:04;6.20;48.40
2783;DHT22;1399;47.072;15.452;2023-02-16T03:40:32;6.20;48.40
2783;DHT22;1399;47.072;15.452;2023-02-16T03:43:01;6.20;48.40
2783;DHT22;1399;47.072;15.452;2023-02-16T03:45:29;6.20;48.50
2783;DHT22;1399;47.072;15.452;2023-02-16T03:47:55;6.20;48.50
2783;DHT22;1399;47.072;15.452;2023-02-16T03:50:21;6.20;48.50
2783;DHT22;1399;47.072;15.452;2023-02-16T03:52:48;6.20;48.50
2783;DHT22;1399;47.072;15.452;2023-02-16T03:55:14;6.20;48.60
2783;DHT22;1399;47.072;15.452;2023-02-16T03:57:43;6.20;48.60
2783;DHT22;1399;47.072;15.452;2023-02-16T04:00:09;6.10;48.40
2783;DHT22;1399;47.072;15.452;2023-02-16T04:02:35;6.10;48.50
2783;DHT22;1399;47.072;15.452;2023-02-16T04:05:01;6.10;48.50
2783;DHT22;1399;47.072;15.452;2023-02-16T04:07:27;6.10;48.50
2783;DHT22;1399;47.072;15.452;2023-02-16T04:09:52;6.10;48.50
2783;DHT22;1399;47.072;15.452;2023-02-16T04:12:18;6.10;48.50
2783;DHT22;1399;47.072;15.452;2023-02-16T04:15:11;6.10;48.50
2783;DHT22;1399;47.072;15.452;2023-02-16T04:17:37;6.10;48.50
2783;DHT22;1399;47.072;15.452;2023-02-16T04:20:04;6.10;48.50
2783;DHT22;1399;47.072;15.452;2023-02-16T04:22:30;6.10;48.60
2783;DHT22;1399;47.072;15.452;2023-02-16T04:24:56;6.10;48.50
2783;DHT22;1399;47.072;15.452;2023-02-16T04:27:22;6.10;48.60
2783;DHT22;1399;47.072;15.452;2023-02-16T04:29:47;6.10;48.60
2783;DHT22;1399;47.072;15.452;2023-02-16T04:32:13;6.10;48.70
2783;DHT22;1399;47.072;15.452;2023-02-16T04:34:39;6.10;48.60
2783;DHT22;1399;47.072;15.452;2023-02-16T04:37:05;6.10;48.60
2783;DHT22;1399;47.072;15.452;2023-02-16T04:39:31;6.10;48.60
2783;DHT22;1399;47.072;15.452;2023-02-16T04:41:57;6.10;48.60
2783;DHT22;1399;47.072;15.452;2023-02-16T04:44:22;6.10;48.60
2783;DHT22;1399;47.072;15.452;2023-02-16T04:46:48;6.00;48.60
2783;DHT22;1399;47.072;15.452;2023-02-16T04:49:14;6.10;48.60
2783;DHT22;1399;47.072;15.452;2023-02-16T04:51:39;6.10;48.60
2783;DHT22;1399;47.072;15.452;2023-02-16T04:54:06;6.10;48.60
2783;DHT22;1399;47.072;15.452;2023-02-16T04:56:32;6.00;48.50
2783;DHT22;1399;47.072;15.452;2023-02-16T04:58:58;6.10;49.20
2783;DHT22;1399;47.072;15.452;2023-02-16T05:01:25;6.00;48.50
2783;DHT22;1399;47.072;15.452;2023-02-16T05:03:51;6.00;48.40
2783;DHT22;1399;47.072;15.452;2023-02-16T05:06:17;6.00;48.40
2783;DHT22;1399;47.072;15.452;2023-02-16T05:08:43;6.00;48.40
2783;DHT22;1399;47.072;15.452;2023-02-16T05:11:09;6.00;48.40
2783;DHT22;1399;47.072;15.452;2023-02-16T05:13:56;6.00;48.40
2783;DHT22;1399;47.072;15.452;2023-02-16T05:16:40;6.00;48.40
2783;DHT22;1399;47.072;15.452;2023-02-16T05:19:07;6.00;48.40
2783;DHT22;1399;47.072;15.452;2023-02-16T05:21:32;6.00;48.40
2783;DHT22;1399;47.072;15.452;2023-02-16T05:24:06;6.00;48.40
2783;DHT22;1399;47.072;15.452;2023-02-16T05:26:33;6.00;48.40
2783;DHT22;1399;47.072;15.452;2023-02-16T05:28:59;6.00;48.30
2783;DHT22;1399;47.072;15.452;2023-02-16T05:31:27;6.00;48.30
2783;DHT22;1399;47.072;15.452;2023-02-16T05:33:53;6.00;48.30
2783;DHT22;1399;47.072;15.452;2023-02-16T05:36:21;6.00;48.30
2783;DHT22;1399;47.072;15.452;2023-02-16T05:38:46;6.00;48.30
2783;DHT22;1399;47.072;15.452;2023-02-16T05:41:12;6.00;48.40
2783;DHT22;1399;47.072;15.452;2023-02-16T05:43:55;6.00;48.30
2783;DHT22;1399;47.072;15.452;2023-02-16T05:46:22;6.00;48.30
2783;DHT22;1399;47.072;15.452;2023-02-16T05:48:49;6.00;48.20
2783;DHT22;1399;47.072;15.452;2023-02-16T05:51:15;6.00;48.20
2783;DHT22;1399;47.072;15.452;2023-02-16T05:53:41;6.00;48.20
2783;DHT22;1399;47.072;15.452;2023-02-16T05:56:08;6.00;48.20
2783;DHT22;1399;47.072;15.452;2023-02-16T05:58:34;6.00;48.20
2783;DHT22;1399;47.072;15.452;2023-02-16T06:01:00;6.00;48.20
2783;DHT22;1399;47.072;15.452;2023-02-16T06:03:26;6.00;48.10
2783;DHT22;1399;47.072;15.452;2023-02-16T06:05:56;6.00;48.10
2783;DHT22;1399;47.072;15.452;2023-02-16T06:08:22;6.00;48.00
2783;DHT22;1399;47.072;15.452;2023-02-16T06:10:49;6.00;48.00
2783;DHT22;1399;47.072;15.452;2023-02-16T06:13:16;6.00;48.00
2783;DHT22;1399;47.072;15.452;2023-02-16T06:15:42;6.00;48.00
2783;DHT22;1399;47.072;15.452;2023-02-16T06:18:08;6.00;48.00
2783;DHT22;1399;47.072;15.452;2023-02-16T06:20:38;6.00;47.90
2783;DHT22;1399;47.072;15.452;2023-02-16T06:23:07;6.00;48.00
2783;DHT22;1399;47.072;15.452;2023-02-16T06:25:34;6.00;47.90
2783;DHT22;1399;47.072;15.452;2023-02-16T06:28:00;6.10;48.00
2783;DHT22;1399;47.072;15.452;2023-02-16T06:30:26;6.10;48.00
2783;DHT22;1399;47.072;15.452;2023-02-16T06:32:52;6.10;47.90
2783;DHT22;1399;47.072;15.452;2023-02-16T06:35:18;6.10;47.90
2783;DHT22;1399;47.072;15.452;2023-02-16T06:37:44;6.10;47.80
2783;DHT22;1399;47.072;15.452;2023-02-16T06:40:11;6.10;47.90
2783;DHT22;1399;47.072;15.452;2023-02-16T06:42:41;6.10;47.90
2783;DHT22;1399;47.072;15.452;2023-02-16T06:45:07;6.10;47.90
2783;DHT22;1399;47.072;15.452;2023-02-16T06:47:34;6.10;47.90
2783;DHT22;1399;47.072;15.452;2023-02-16T06:50:00;6.10;47.90
2783;DHT22;1399;47.072;15.452;2023-02-16T06:52:26;6.20;47.90
2783;DHT22;1399;47.072;15.452;2023-02-16T06:54:51;6.20;47.90
2783;DHT22;1399;47.072;15.452;2023-02-16T06:57:17;6.20;47.90
2783;DHT22;1399;47.072;15.452;2023-02-16T06:59:43;6.20;47.90
2783;DHT22;1399;47.072;15.452;2023-02-16T07:02:09;6.20;47.90
2783;DHT22;1399;47.072;15.452;2023-02-16T07:04:35;6.30;48.00
2783;DHT22;1399;47.072;15.452;2023-02-16T07:07:02;6.30;48.00
2783;DHT22;1399;47.072;15.452;2023-02-16T07:09:28;6.30;48.00
2783;DHT22;1399;47.072;15.452;2023-02-16T07:11:54;6.30;48.00
2783;DHT22;1399;47.072;15.452;2023-02-16T07:14:20;6.30;48.10
2783;DHT22;1399;47.072;15.452;2023-02-16T07:16:45;6.40;48.10
2783;DHT22;1399;47.072;15.452;2023-02-16T07:19:11;6.40;48.10
2783;DHT22;1399;47.072;15.452;2023-02-16T07:21:37;6.40;48.20
2783;DHT22;1399;47.072;15.452;2023-02-16T07:24:03;6.40;48.20
2783;DHT22;1399;47.072;15.452;2023-02-16T07:26:28;6.50;48.30
2783;DHT22;1399;47.072;15.452;2023-02-16T07:28:54;6.50;48.30
2783;DHT22;1399;47.072;15.452;2023-02-16T07:31:20;6.50;48.30
2783;DHT22;1399;47.072;15.452;2023-02-16T07:33:46;6.50;48.30
2783;DHT22;1399;47.072;15.452;2023-02-16T07:36:12;6.60;48.40
2783;DHT22;1399;47.072;15.452;2023-02-16T07:38:38;6.60;48.40
2783;DHT22;1399;47.072;15.452;2023-02-16T07:41:06;6.60;48.40
2783;DHT22;1399;47.072;15.452;2023-02-16T07:43:32;6.60;48.40
2783;DHT22;1399;47.072;15.452;2023-02-16T07:45:59;6.60;48.50
2783;DHT22;1399;47.072;15.452;2023-02-16T07:48:25;6.70;48.50
2783;DHT22;1399;47.072;15.452;2023-02-16T07:50:51;6.70;48.50
2783;DHT22;1399;47.072;15.452;2023-02-16T07:53:17;6.70;48.50
2783;DHT22;1399;47.072;15.452;2023-02-16T07:55:44;6.80;48.60
2783;DHT22;1399;47.072;15.452;2023-02-16T07:58:11;6.80;48.60
2783;DHT22;1399;47.072;15.452;2023-02-16T08:00:54;6.90;48.70
2783;DHT22;1399;47.072;15.452;2023-02-16T08:03:19;6.90;48.70
2783;DHT22;1399;47.072;15.452;2023-02-16T08:05:45;6.90;48.60
2783;DHT22;1399;47.072;15.452;2023-02-16T08:08:11;7.00;48.70
2783;DHT22;1399;47.072;15.452;2023-02-16T08:10:36;7.00;48.80
2783;DHT22;1399;47.072;15.452;2023-02-16T08:13:02;7.10;48.80
2783;DHT22;1399;47.072;15.452;2023-02-16T08:15:28;7.10;48.70
2783;DHT22;1399;47.072;15.452;2023-02-16T08:17:53;7.10;48.70
2783;DHT22;1399;47.072;15.452;2023-02-16T08:20:19;7.10;48.70
2783;DHT22;1399;47.072;15.452;2023-02-16T08:22:45;7.20;48.70
2783;DHT22;1399;47.072;15.452;2023-02-16T08:25:11;7.20;48.70
2783;DHT22;1399;47.072;15.452;2023-02-16T08:27:40;7.30;48.70
2783;DHT22;1399;47.072;15.452;2023-02-16T08:30:07;7.30;48.60
2783;DHT22;1399;47.072;15.452;2023-02-16T08:32:40;7.40;48.60
2783;DHT22;1399;47.072;15.452;2023-02-16T08:35:07;7.40;48.60
2783;DHT22;1399;47.072;15.452;2023-02-16T08:37:33;7.40;48.60
2783;DHT22;1399;47.072;15.452;2023-02-16T08:39:59;7.50;48.70
2783;DHT22;1399;47.072;15.452;2023-02-16T08:42:27;7.50;48.60
2783;DHT22;1399;47.072;15.452;2023-02-16T08:44:52;7.50;48.60
2783;DHT22;1399;47.072;15.452;2023-02-16T08:47:19;7.60;48.60
2783;DHT22;1399;47.072;15.452;2023-02-16T08:49:46;7.60;48.50
2783;DHT22;1399;47.072;15.452;2023-02-16T08:52:12;7.60;48.50
2783;DHT22;1399;47.072;15.452;2023-02-16T08:54:38;7.70;48.50
2783;DHT22;1399;47.072;15.452;2023-02-16T08:57:04;7.70;48.40
2783;DHT22;1399;47.072;15.452;2023-02-16T08:59:31;7.70;48.40
2783;DHT22;1399;47.072;15.452;2023-02-16T09:02:00;7.80;48.50
2783;DHT22;1399;47.072;15.452;2023-02-16T09:04:26;7.80;48.50
2783;DHT22;1399;47.072;15.452;2023-02-16T09:06:54;7.80;48.40
2783;DHT22;1399;47.072;15.452;2023-02-16T09:09:21;7.90;48.40
2783;DHT22;1399;47.072;15.452;2023-02-16T09:11:48;7.90;48.40
2783;DHT22;1399;47.072;15.452;2023-02-16T09:14:17;8.00;48.40
2783;DHT22;1399;47.072;15.452;2023-02-16T09:16:44;8.00;48.40
2783;DHT22;1399;47.072;15.452;2023-02-16T09:19:15;8.00;48.30
2783;DHT22;1399;47.072;15.452;2023-02-16T09:21:42;8.10;48.40
2783;DHT22;1399;47.072;15.452;2023-02-16T09:24:08;8.20;48.30
2783;DHT22;1399;47.072;15.452;2023-02-16T09:26:37;8.20;48.30
2783;DHT22;1399;47.072;15.452;2023-02-16T09:29:05;8.40;48.10
2783;DHT22;1399;47.072;15.452;2023-02-16T09:31:34;8.50;47.90
2783;DHT22;1399;47.072;15.452;2023-02-16T09:34:05;8.50;47.80
2783;DHT22;1399;47.072;15.452;2023-02-16T09:36:32;8.50;47.80
2783;DHT22;1399;47.072;15.452;2023-02-16T09:38:58;8.50;47.80
2783;DHT22;1399;47.072;15.452;2023-02-16T09:44:05;8.50;47.90
2783;DHT22;1399;47.072;15.452;2023-02-16T09:46:35;8.60;47.90
2783;DHT22;1399;47.072;15.452;2023-02-16T09:49:02;8.70;47.80
2783;DHT22;1399;47.072;15.452;2023-02-16T09:51:39;8.70;47.80
2783;DHT22;1399;47.072;15.452;2023-02-16T09:54:51;8.80;47.80
2783;DHT22;1399;47.072;15.452;2023-02-16T09:59:47;8.80;47.90
2783;DHT22;1399;47.072;15.452;2023-02-16T10:02:44;8.80;48.00
2783;DHT22;1399;47.072;15.452;2023-02-16T10:08:20;9.00;48.00
2783;DHT22;1399;47.072;15.452;2023-02-16T10:10:59;9.20;47.80
2783;DHT22;1399;47.072;15.452;2023-02-16T10:13:40;9.30;47.60
2783;DHT22;1399;47.072;15.452;2023-02-16T10:16:15;9.30;47.50
2783;DHT22;1399;47.072;15.452;2023-02-16T10:18:47;9.30;47.50
2783;DHT22;1399;47.072;15.452;2023-02-16T10:21:18;9.30;47.60
2783;DHT22;1399;47.072;15.452;2023-02-16T10:23:52;9.30;47.60
2783;DHT22;1399;47.072;15.452;2023-02-16T10:26:43;9.20;47.60
2783;DHT22;1399;47.072;15.452;2023-02-16T10:29:21;9.20;47.70
2783;DHT22;1399;47.072;15.452;2023-02-16T10:32:11;9.30;47.90
2783;DHT22;1399;47.072;15.452;2023-02-16T10:34:47;9.30;47.90
2783;DHT22;1399;47.072;15.452;2023-02-16T10:45:42;9.40;48.00
2783;DHT22;1399;47.072;15.452;2023-02-16T10:48:11;9.40;48.10
2783;DHT22;1399;47.072;15.452;2023-02-16T10:50:45;9.40;48.10
2783;DHT22;1399;47.072;15.452;2023-02-16T10:53:18;9.40;48.10
2783;DHT22;1399;47.072;15.452;2023-02-16T10:55:46;9.40;48.10
2783;DHT22;1399;47.072;15.452;2023-02-16T10:58:28;9.50;48.30
2783;DHT22;1399;47.072;15.452;2023-02-16T11:01:20;9.40;48.20
2783;DHT22;1399;47.072;15.452;2023-02-16T11:03:51;9.40;48.20
2783;DHT22;1399;47.072;15.452;2023-02-16T11:06:22;9.50;48.20
2783;DHT22;1399;47.072;15.452;2023-02-16T11:08:57;9.50;48.20
2783;DHT22;1399;47.072;15.452;2023-02-16T11:11:27;9.50;48.30
2783;DHT22;1399;47.072;15.452;2023-02-16T11:14:20;9.50;48.30
2783;DHT22;1399;47.072;15.452;2023-02-16T11:16:47;9.50;48.30
2783;DHT22;1399;47.072;15.452;2023-02-16T11:19:21;9.50;48.30
2783;DHT22;1399;47.072;15.452;2023-02-16T11:21:52;9.60;48.40
2783;DHT22;1399;47.072;15.452;2023-02-16T11:24:34;9.60;48.40
2783;DHT22;1399;47.072;15.452;2023-02-16T11:29:40;9.60;48.40
2783;DHT22;1399;47.072;15.452;2023-02-16T11:32:08;9.60;48.40
2783;DHT22;1399;47.072;15.452;2023-02-16T11:37:15;9.70;48.40
2783;DHT22;1399;47.072;15.452;2023-02-16T11:40:25;9.70;48.40
2783;DHT22;1399;47.072;15.452;2023-02-16T11:42:53;9.70;48.40
2783;DHT22;1399;47.072;15.452;2023-02-16T11:45:28;9.70;48.40
2783;DHT22;1399;47.072;15.452;2023-02-16T11:48:04;9.70;48.40
2783;DHT22;1399;47.072;15.452;2023-02-16T11:50:37;9.70;48.40
2783;DHT22;1399;47.072;15.452;2023-02-16T11:55:47;9.80;48.60
2783;DHT22;1399;47.072;15.452;2023-02-16T12:09:07;9.80;48.80
2783;DHT22;1399;47.072;15.452;2023-02-16T12:11:54;9.80;48.80
2783;DHT22;1399;47.072;15.452;2023-02-16T12:22:50;9.80;48.90
2783;DHT22;1399;47.072;15.452;2023-02-16T12:25:50;9.80;48.90
2783;DHT22;1399;47.072;15.452;2023-02-16T12:44:37;9.90;49.20
2783;DHT22;1399;47.072;15.452;2023-02-16T12:47:24;9.90;49.30
2783;DHT22;1399;47.072;15.452;2023-02-16T12:49:54;9.90;49.30
2783;DHT22;1399;47.072;15.452;2023-02-16T12:55:24;10.00;48.50
2783;DHT22;1399;47.072;15.452;2023-02-16T13:00:46;10.00;48.50
2783;DHT22;1399;47.072;15.452;2023-02-16T13:06:20;10.00;48.50
2783;DHT22;1399;47.072;15.452;2023-02-16T13:09:18;10.00;48.50
2783;DHT22;1399;47.072;15.452;2023-02-16T13:12:07;10.10;48.50
2783;DHT22;1399;47.072;15.452;2023-02-16T13:14:39;10.10;48.50
2783;DHT22;1399;47.072;15.452;2023-02-16T13:17:18;10.10;48.40
2783;DHT22;1399;47.072;15.452;2023-02-16T13:19:46;10.10;48.40
2783;DHT22;1399;47.072;15.452;2023-02-16T13:25:18;10.10;48.40
2783;DHT22;1399;47.072;15.452;2023-02-16T13:30:47;10.10;48.40
2783;DHT22;1399;47.072;15.452;2023-02-16T13:44:41;10.20;48.30
2783;DHT22;1399;47.072;15.452;2023-02-16T13:47:13;10.20;48.30
2783;DHT22;1399;47.072;15.452;2023-02-16T13:49:40;10.20;48.30
2783;DHT22;1399;47.072;15.452;2023-02-16T13:52:35;10.20;48.30
2783;DHT22;1399;47.072;15.452;2023-02-16T13:55:05;10.20;48.30
2783;DHT22;1399;47.072;15.452;2023-02-16T14:05:51;10.30;48.40
2783;DHT22;1399;47.072;15.452;2023-02-16T14:08:27;10.30;48.40
2783;DHT22;1399;47.072;15.452;2023-02-16T14:13:32;10.30;48.20
2783;DHT22;1399;47.072;15.452;2023-02-16T14:16:37;10.40;48.30
2783;DHT22;1399;47.072;15.452;2023-02-16T14:18:57;10.40;48.30
2783;DHT22;1399;47.072;15.452;2023-02-16T14:21:30;10.40;48.30
2783;DHT22;1399;47.072;15.452;2023-02-16T14:23:58;10.40;48.40
2783;DHT22;1399;47.072;15.452;2023-02-16T14:26:25;10.40;48.30
2783;DHT22;1399;47.072;15.452;2023-02-16T14:29:05;10.40;48.30
2783;DHT22;1399;47.072;15.452;2023-02-16T14:31:40;10.50;48.30
2783;DHT22;1399;47.072;15.452;2023-02-16T14:34:26;10.50;48.30
2783;DHT22;1399;47.072;15.452;2023-02-16T14:37:24;10.50;48.20
2783;DHT22;1399;47.072;15.452;2023-02-16T14:39:52;10.50;48.10
2783;DHT22;1399;47.072;15.452;2023-02-16T14:42:43;10.50;48.00
2783;DHT22;1399;47.072;15.452;2023-02-16T14:48:28;10.60;48.00
2783;DHT22;1399;47.072;15.452;2023-02-16T14:59:51;10.60;47.80
2783;DHT22;1399;47.072;15.452;2023-02-16T15:01:50;10.60;47.70
2783;DHT22;1399;47.072;15.452;2023-02-16T15:04:30;10.60;47.60
2783;DHT22;1399;47.072;15.452;2023-02-16T15:06:58;10.70;47.70
2783;DHT22;1399;47.072;15.452;2023-02-16T15:09:28;10.60;47.50
2783;DHT22;1399;47.072;15.452;2023-02-16T15:12:02;10.70;47.50
2783;DHT22;1399;47.072;15.452;2023-02-16T15:15:07;10.70;47.50
2783;DHT22;1399;47.072;15.452;2023-02-16T15:17:44;10.70;47.40
2783;DHT22;1399;47.072;15.452;2023-02-16T15:20:17;10.70;47.30
2783;DHT22;1399;47.072;15.452;2023-02-16T15:22:52;10.70;47.20
2783;DHT22;1399;47.072;15.452;2023-02-16T15:25:30;10.70;47.20
2783;DHT22;1399;47.072;15.452;2023-02-16T15:30:35;10.70;47.10
2783;DHT22;1399;47.072;15.452;2023-02-16T15:33:04;10.70;47.00
2783;DHT22;1399;47.072;15.452;2023-02-16T15:35:41;10.70;46.90
2783;DHT22;1399;47.072;15.452;2023-02-16T15:38:19;10.70;46.80
2783;DHT22;1399;47.072;15.452;2023-02-16T15:40:45;10.70;46.80
2783;DHT22;1399;47.072;15.452;2023-02-16T15:48:40;10.70;46.70
2783;DHT22;1399;47.072;15.452;2023-02-16T15:51:13;10.70;46.70
2783;DHT22;1399;47.072;15.452;2023-02-16T15:53:56;10.70;46.70
2783;DHT22;1399;47.072;15.452;2023-02-16T15:56:46;10.70;46.70
2783;DHT22;1399;47.072;15.452;2023-02-16T15:59:19;10.70;46.60
2783;DHT22;1399;47.072;15.452;2023-02-16T16:01:47;10.70;46.60
2783;DHT22;1399;47.072;15.452;2023-02-16T16:04:23;10.60;46.50
2783;DHT22;1399;47.072;15.452;2023-02-16T16:06:50;10.60;46.50
2783;DHT22;1399;47.072;15.452;2023-02-16T16:09:26;10.60;46.60
2783;DHT22;1399;47.072;15.452;2023-02-16T16:12:01;10.60;46.60
2783;DHT22;1399;47.072;15.452;2023-02-16T16:14:29;10.60;46.60
2783;DHT22;1399;47.072;15.452;2023-02-16T16:16:57;10.60;46.70
2783;DHT22;1399;47.072;15.452;2023-02-16T16:19:36;10.50;46.60
2783;DHT22;1399;47.072;15.452;2023-02-16T16:25:01;10.50;46.60
2783;DHT22;1399;47.072;15.452;2023-02-16T16:27:34;10.50;46.70
2783;DHT22;1399;47.072;15.452;2023-02-16T16:33:04;10.50;46.70
2783;DHT22;1399;47.072;15.452;2023-02-16T16:35:43;10.50;46.70
2783;DHT22;1399;47.072;15.452;2023-02-16T16:38:27;10.50;46.70
2783;DHT22;1399;47.072;15.452;2023-02-16T16:40:58;10.40;46.60
2783;DHT22;1399;47.072;15.452;2023-02-16T16:43:36;10.40;46.60
2783;DHT22;1399;47.072;15.452;2023-02-16T16:46:22;10.40;46.60
2783;DHT22;1399;47.072;15.452;2023-02-16T16:48:52;10.40;46.60
2783;DHT22;1399;47.072;15.452;2023-02-16T16:51:40;10.40;46.60
2783;DHT22;1399;47.072;15.452;2023-02-16T16:54:11;10.40;46.70
2783;DHT22;1399;47.072;15.452;2023-02-16T16:56:39;10.40;46.80
2783;DHT22;1399;47.072;15.452;2023-02-16T16:59:06;10.40;46.90
2783;DHT22;1399;47.072;15.452;2023-02-16T17:01:32;10.40;46.90
2783;DHT22;1399;47.072;15.452;2023-02-16T17:03:59;10.40;46.90
2783;DHT22;1399;47.072;15.452;2023-02-16T17:06:25;10.40;47.00
2783;DHT22;1399;47.072;15.452;2023-02-16T17:08:52;10.40;47.10
2783;DHT22;1399;47.072;15.452;2023-02-16T17:11:26;10.40;47.10
2783;DHT22;1399;47.072;15.452;2023-02-16T17:13:54;10.30;47.10
2783;DHT22;1399;47.072;15.452;2023-02-16T17:16:26;10.30;47.10
2783;DHT22;1399;47.072;15.452;2023-02-16T17:18:53;10.30;47.20
2783;DHT22;1399;47.072;15.452;2023-02-16T17:21:19;10.30;47.20
2783;DHT22;1399;47.072;15.452;2023-02-16T17:23:46;10.30;47.30
2783;DHT22;1399;47.072;15.452;2023-02-16T17:26:12;10.30;47.30
2783;DHT22;1399;47.072;15.452;2023-02-16T17:28:38;10.30;47.40
2783;DHT22;1399;47.072;15.452;2023-02-16T17:31:06;10.30;47.50
2783;DHT22;1399;47.072;15.452;2023-02-16T17:33:33;10.30;47.50
2783;DHT22;1399;47.072;15.452;2023-02-16T17:36:02;10.20;47.50
2783;DHT22;1399;47.072;15.452;2023-02-16T17:38:30;10.30;47.60
2783;DHT22;1399;47.072;15.452;2023-02-16T17:40:57;10.20;47.60
2783;DHT22;1399;47.072;15.452;2023-02-16T17:43:24;10.20;47.60
2783;DHT22;1399;47.072;15.452;2023-02-16T17:45:52;10.20;47.60
2783;DHT22;1399;47.072;15.452;2023-02-16T17:48:25;10.20;47.70
2783;DHT22;1399;47.072;15.452;2023-02-16T17:50:52;10.20;47.80
2783;DHT22;1399;47.072;15.452;2023-02-16T17:53:20;10.20;47.80
2783;DHT22;1399;47.072;15.452;2023-02-16T17:55:48;10.20;47.90
2783;DHT22;1399;47.072;15.452;2023-02-16T17:58:17;10.10;47.80
2783;DHT22;1399;47.072;15.452;2023-02-16T18:00:44;10.10;47.80
2783;DHT22;1399;47.072;15.452;2023-02-16T18:03:11;10.10;47.90
2783;DHT22;1399;47.072;15.452;2023-02-16T18:05:37;10.10;47.90
2783;DHT22;1399;47.072;15.452;2023-02-16T18:08:04;10.10;47.90
2783;DHT22;1399;47.072;15.452;2023-02-16T18:10:40;10.10;47.90
2783;DHT22;1399;47.072;15.452;2023-02-16T18:13:07;10.00;47.90
2783;DHT22;1399;47.072;15.452;2023-02-16T18:15:35;10.00;47.90
2783;DHT22;1399;47.072;15.452;2023-02-16T18:18:03;10.00;48.00
2783;DHT22;1399;47.072;15.452;2023-02-16T18:20:29;10.00;48.00
2783;DHT22;1399;47.072;15.452;2023-02-16T18:22:55;9.90;48.70
2783;DHT22;1399;47.072;15.452;2023-02-16T18:25:22;9.90;48.70
2783;DHT22;1399;47.072;15.452;2023-02-16T18:27:48;9.90;48.80
2783;DHT22;1399;47.072;15.452;2023-02-16T18:30:16;9.90;48.80
2783;DHT22;1399;47.072;15.452;2023-02-16T18:32:42;9.90;48.90
2783;DHT22;1399;47.072;15.452;2023-02-16T18:35:12;9.80;48.80
2783;DHT22;1399;47.072;15.452;2023-02-16T18:37:39;9.80;48.80
2783;DHT22;1399;47.072;15.452;2023-02-16T18:40:08;9.80;48.80
2783;DHT22;1399;47.072;15.452;2023-02-16T18:42:36;9.80;48.90
2783;DHT22;1399;47.072;15.452;2023-02-16T18:45:04;9.80;48.90
2783;DHT22;1399;47.072;15.452;2023-02-16T18:47:31;9.70;48.90
2783;DHT22;1399;47.072;15.452;2023-02-16T18:49:57;9.70;48.90
2783;DHT22;1399;47.072;15.452;2023-02-16T18:52:23;9.70;48.90